Airport View

Enter AWOS ICAO identifier for current METAR.

ex. KFNL

KDTN 251653Z 02003KT 10SM BKN013 OVC027 14/11 A3006 RMK AO2 SLP177 T01440106

25 Oct 2020 17:33

Frequency: 118.525

Phone: 318-425-7967

Other Area AWOS: KBAD - KSHV - KMNE - K3F3

TAF AMD KBAD 251126Z 2511/2616 02003KT 9999 OVC004 QNH2999INS BECMG 2516/2517 01005KT 9999 OVC007 QNH2997INS TX22/2522Z TN10/2512Z